Ivins, UT (84738)

9:36 PM MDT on September 16, 2014 (GMT -0600)
400 S Puerto Drive | Change Station
CLOSE
Current Station
Personal Weather Station
Location: Ivins, UT
Elevation: 3000 ft
Nearby Weather Stations

Elev 3000 ft 37.16 °N, 113.67 °W | Updated 11 seconds ago

Partly Cloudy
Partly Cloudy
84.7 °F
Feels Like 83 °F
N
0.0
Wind Variable Wind from NW
Gusts 0.0 mph

Today
High -- | Low -- °F
--% Chance of Precip.
Yesterday
High -- | Low -- °F
Precip. -- in
7:17 AM 7:40 PM
Last Quarter, 40% visible
Pressure 29.90 in
Visibility 10.0 miles
Clouds Clear
Heat Index 83 °F
Dew Point 51 °F
Humidity 31%
Rainfall 0.00 in
Snow Depth 0 in , 0 in , 0 in
UV 0 out of 12
Pollen 6.20 out of 12
Air Quality Not available.
Flu Activity Not available.
METAR KSGU 170315Z AUTO 14003KT 10SM CLR 29/09 A2990 RMK AO1

More Conditions Fewer Conditions

Pressure 29.90 in
Visibility 10.0 miles
Clouds Clear
Heat Index 83 °F
Dew Point 51 °F
Humidity 31%
Rainfall 0.00 in
Snow Depth 0 in , 0 in , 0 in
UV 0 out of 12
Pollen 6.20 out of 12
Air Quality Not available.
Flu Activity Not available.
METAR KSGU 170315Z AUTO 14003KT 10SM CLR 29/09 A2990 RMK AO1

More Conditions Fewer Conditions

10-Day Weather Forecast

Almanac

Astronomy

Sep. 16, 2014 Rise Set
Actual Time 7:17 AM MDT 7:40 PM MDT
Civil Twilight 6:51 AM MDT 8:06 PM MDT
Nautical Twilight 6:20 AM MDT 8:37 PM MDT
Astronomical Twilight 5:49 AM MDT 9:08 PM MDT
Moon 12:36 AM MDT (9/16) 3:01 PM MDT (9/16)
Length of Visible Light 13h 15m
Length of Day
12h 23m
Tomorrow will be 2m 21s shorter.
Last Quarter, 40% of the Moon is Illuminated
Today
Last Quarter
Sep 24
New
Oct 1
First Quarter
Oct 8
Full
Oct 15
Last Quarter

Today's Extremes

State Highs State Lows

Community

WunderPhotos

Upload Photos

1,753,954 photos uploaded!

Nearby

Snow Depth

Station Depth Elevation
Cascade Mountain 0 in 7768 ft
Dry Fork 0 in 7160 ft
Mosby Mountain 0 in 9500 ft
Long Valley Jct 0 in 7360 ft
Clayton Springs 0 in 10000 ft

Earthquake Activity

City Distance Mag. Time & Date
Currant, Nevada 128 miles 2.7 2:00 PM MDT
2014-09-16
Alamo, Nevada 72 miles 2.6 9:36 AM MDT
2014-09-14
Minimum magnitude displayed is 2.5.

Coastal Water Temperatures

Place Temperature
No Stations Reporting

Nearby Weather Stations